createdAt,value
2022-10-04T00:01:58.194Z,8.03
2022-10-04T00:04:24.694Z,8.15
2022-10-04T00:06:59.714Z,8.16
2022-10-04T00:09:29.382Z,8.05
2022-10-04T00:11:57.045Z,7.77
2022-10-04T00:14:50.833Z,7.87
2022-10-04T00:17:22.265Z,7.85
2022-10-04T00:19:50.522Z,7.82
2022-10-04T00:22:24.037Z,8.03
2022-10-04T00:25:09.920Z,8.09
2022-10-04T00:27:37.390Z,7.91
2022-10-04T00:30:03.763Z,7.79
2022-10-04T00:32:42.828Z,7.62
2022-10-04T00:35:24.547Z,7.65
2022-10-04T00:38:06.275Z,7.52
2022-10-04T00:40:36.886Z,7.67
2022-10-04T00:43:26.632Z,7.61
2022-10-04T00:45:57.041Z,7.62
2022-10-04T00:48:25.725Z,7.50
2022-10-04T00:51:02.558Z,7.54
2022-10-04T00:53:41.232Z,7.64
2022-10-04T00:56:11.398Z,7.66
2022-10-04T00:59:03.781Z,7.64
2022-10-04T01:01:33.908Z,7.62
2022-10-04T01:04:02.388Z,7.47
2022-10-04T01:06:29.624Z,7.43
2022-10-04T01:09:01.224Z,7.62
2022-10-04T01:11:29.522Z,7.47
2022-10-04T01:14:04.565Z,7.39
2022-10-04T01:16:35.039Z,7.34
2022-10-04T01:19:20.750Z,7.41
2022-10-04T01:21:47.605Z,7.54
2022-10-04T01:24:21.226Z,7.41
2022-10-04T01:26:47.699Z,7.50
2022-10-04T01:29:16.890Z,7.39
2022-10-04T01:31:50.144Z,7.35
2022-10-04T01:34:18.477Z,7.40
2022-10-04T01:36:47.165Z,7.21
2022-10-04T01:39:14.686Z,7.30
2022-10-04T01:41:44.660Z,7.22
2022-10-04T01:44:16.071Z,7.33
2022-10-04T01:46:42.633Z,7.17
2022-10-04T01:49:16.438Z,6.97
2022-10-04T01:51:49.824Z,7.04
2022-10-04T01:54:18.295Z,7.18
2022-10-04T01:56:50.920Z,7.39
2022-10-04T01:59:21.321Z,7.17
2022-10-04T02:01:52.383Z,7.19
2022-10-04T02:04:27.504Z,7.04
2022-10-04T02:06:56.534Z,6.89
2022-10-04T02:09:34.028Z,6.79
2022-10-04T02:12:01.215Z,6.71
2022-10-04T02:14:29.710Z,6.91
2022-10-04T02:16:56.395Z,7.02
2022-10-04T02:19:24.954Z,7.27
2022-10-04T02:21:52.210Z,6.99
2022-10-04T02:24:19.326Z,6.97
2022-10-04T02:26:49.288Z,7.08
2022-10-04T02:29:15.813Z,6.94
2022-10-04T02:32:01.058Z,7.01
2022-10-04T02:34:27.510Z,6.84
2022-10-04T02:36:54.025Z,6.91
2022-10-04T02:39:26.687Z,6.89
2022-10-04T02:42:00.450Z,6.76
2022-10-04T02:44:29.865Z,6.46
2022-10-04T02:47:15.188Z,6.60
2022-10-04T02:50:01.825Z,6.81
2022-10-04T02:52:37.539Z,6.83
2022-10-04T02:55:07.284Z,6.57
2022-10-04T02:57:34.515Z,6.44
2022-10-04T03:00:16.224Z,6.22
2022-10-04T03:03:02.606Z,6.19
2022-10-04T03:05:29.102Z,6.49
2022-10-04T03:07:56.439Z,6.63
2022-10-04T03:10:23.065Z,6.68
2022-10-04T03:12:50.818Z,6.64
2022-10-04T03:15:18.023Z,6.58
2022-10-04T03:17:44.582Z,6.58
2022-10-04T03:20:15.617Z,6.70
2022-10-04T03:22:46.904Z,6.65
2022-10-04T03:25:26.247Z,6.44
2022-10-04T03:27:56.779Z,6.42
2022-10-04T03:30:23.301Z,6.45
2022-10-04T03:32:50.356Z,6.31
2022-10-04T03:35:37.021Z,6.31
2022-10-04T03:38:06.788Z,6.36
2022-10-04T03:40:33.686Z,6.38
2022-10-04T03:43:02.182Z,6.51
2022-10-04T03:45:29.440Z,6.35
2022-10-04T03:47:58.609Z,6.25
2022-10-04T03:50:27.838Z,6.41
2022-10-04T03:52:56.765Z,6.42
2022-10-04T03:55:26.158Z,6.52
2022-10-04T03:57:52.591Z,6.52
2022-10-04T04:00:19.534Z,6.37
2022-10-04T04:02:52.266Z,6.35
2022-10-04T04:05:18.772Z,6.39
2022-10-04T04:07:45.182Z,6.45
2022-10-04T04:10:21.290Z,6.25
2022-10-04T04:12:56.873Z,6.29
2022-10-04T04:15:23.619Z,6.05
2022-10-04T04:17:55.050Z,6.22
2022-10-04T04:20:29.471Z,6.07
2022-10-04T04:23:22.038Z,6.27
2022-10-04T04:25:50.779Z,6.32
2022-10-04T04:28:32.481Z,6.28
2022-10-04T04:31:02.477Z,6.27
2022-10-04T04:33:35.458Z,6.14
2022-10-04T04:36:06.586Z,6.25
2022-10-04T04:38:35.235Z,6.21
2022-10-04T04:41:11.083Z,6.25
2022-10-04T04:43:42.846Z,6.42
2022-10-04T04:46:26.536Z,6.49
2022-10-04T04:49:01.167Z,6.46
2022-10-04T04:51:28.154Z,6.29
2022-10-04T04:53:55.642Z,6.34
2022-10-04T04:56:27.018Z,6.25
2022-10-04T04:58:55.875Z,6.41
2022-10-04T05:01:26.916Z,6.41
2022-10-04T05:04:19.994Z,6.30
2022-10-04T05:06:49.019Z,6.40
2022-10-04T05:09:22.742Z,6.50
2022-10-04T05:11:50.111Z,6.53
2022-10-04T05:14:17.774Z,6.71
2022-10-04T05:16:44.294Z,6.86
2022-10-04T05:19:22.522Z,6.84
2022-10-04T05:21:49.918Z,6.91
2022-10-04T05:24:25.442Z,7.01
2022-10-04T05:27:03.787Z,7.06
2022-10-04T05:29:35.598Z,7.33
2022-10-04T05:32:05.196Z,7.50
2022-10-04T05:34:36.373Z,7.38
2022-10-04T05:37:22.265Z,7.33
2022-10-04T05:40:03.939Z,7.48
2022-10-04T05:42:30.359Z,7.70
2022-10-04T05:44:57.877Z,7.77
2022-10-04T05:47:28.946Z,8.03
2022-10-04T05:49:57.796Z,8.14
2022-10-04T05:52:33.462Z,8.08
2022-10-04T05:55:12.083Z,8.22
2022-10-04T05:57:50.799Z,8.31
2022-10-04T06:00:21.119Z,8.41
2022-10-04T06:02:54.927Z,8.39
2022-10-04T06:05:40.266Z,8.57
2022-10-04T06:08:16.959Z,8.73
2022-10-04T06:10:46.154Z,8.55
2022-10-04T06:13:30.953Z,8.82
2022-10-04T06:16:03.464Z,8.82
2022-10-04T06:18:42.005Z,8.81
2022-10-04T06:21:27.150Z,9.01
2022-10-04T06:24:10.436Z,8.67
2022-10-04T06:27:03.097Z,8.65
2022-10-04T06:29:38.441Z,9.00
2022-10-04T06:32:21.153Z,9.26
2022-10-04T06:34:55.032Z,9.32
2022-10-04T06:37:39.951Z,9.39
2022-10-04T06:40:18.305Z,9.70
2022-10-04T06:43:00.089Z,9.51
2022-10-04T06:45:35.880Z,9.92
2022-10-04T06:48:11.401Z,9.93
2022-10-04T06:50:37.830Z,10.29
2022-10-04T06:53:16.571Z,10.68
2022-10-04T06:56:04.690Z,10.41
2022-10-04T06:58:49.949Z,10.24
2022-10-04T07:01:23.991Z,10.22
2022-10-04T07:04:05.880Z,10.56
2022-10-04T07:06:48.512Z,10.80
2022-10-04T07:09:19.257Z,11.65
2022-10-04T07:11:57.710Z,11.85
2022-10-04T07:14:37.080Z,11.97
2022-10-04T07:17:10.167Z,12.25
2022-10-04T07:19:44.706Z,12.20
2022-10-04T07:22:17.556Z,12.56
2022-10-04T07:24:59.297Z,13.07
2022-10-04T07:27:42.772Z,13.98
2022-10-04T07:30:14.683Z,14.47
2022-10-04T07:32:45.369Z,14.57
2022-10-04T07:35:14.551Z,15.13
2022-10-04T07:37:59.824Z,14.51
2022-10-04T07:40:30.107Z,14.76
2022-10-04T07:43:17.635Z,15.43
2022-10-04T07:45:44.152Z,16.34
2022-10-04T07:48:15.454Z,16.30
2022-10-04T07:50:48.018Z,15.93
2022-10-04T07:53:37.606Z,15.66
2022-10-04T07:56:21.084Z,16.31
2022-10-04T07:58:57.801Z,16.17
2022-10-04T08:01:50.333Z,15.57
2022-10-04T08:04:22.826Z,16.41
2022-10-04T08:06:58.739Z,17.28
2022-10-04T08:09:33.886Z,17.73
2022-10-04T08:12:14.125Z,16.52
2022-10-04T08:14:59.213Z,16.20
2022-10-04T08:17:37.954Z,17.33
2022-10-04T08:20:23.273Z,17.52
2022-10-04T08:23:28.216Z,16.93
2022-10-04T08:25:57.222Z,17.12
2022-10-04T08:28:51.135Z,17.82
2022-10-04T08:31:17.680Z,17.66
2022-10-04T08:33:47.145Z,17.94
2022-10-04T08:36:32.484Z,17.62
2022-10-04T08:39:03.365Z,18.24
2022-10-04T08:41:48.719Z,17.33
2022-10-04T08:44:32.917Z,17.79
2022-10-04T08:47:21.850Z,18.81
2022-10-04T08:49:58.962Z,18.20
2022-10-04T08:52:44.266Z,19.34
2022-10-04T08:55:32.195Z,18.27
2022-10-04T08:58:16.077Z,18.79
2022-10-04T09:00:51.607Z,18.77
2022-10-04T09:03:35.466Z,19.14
2022-10-04T09:06:14.295Z,19.11
2022-10-04T09:08:59.251Z,19.36
2022-10-04T09:11:38.322Z,19.57
2022-10-04T09:14:17.324Z,19.32
2022-10-04T09:17:02.695Z,19.49
2022-10-04T09:19:47.695Z,20.09
2022-10-04T09:22:14.518Z,19.70
2022-10-04T09:25:00.875Z,21.11
2022-10-04T09:27:53.705Z,20.56
2022-10-04T09:30:19.732Z,21.29
2022-10-04T09:33:01.483Z,20.71
2022-10-04T09:35:36.435Z,20.85
2022-10-04T09:38:19.700Z,20.72
2022-10-04T09:40:55.119Z,20.56
2022-10-04T09:43:28.140Z,20.72
2022-10-04T09:46:04.809Z,21.37
2022-10-04T09:48:54.689Z,21.09
2022-10-04T09:51:26.106Z,21.27
2022-10-04T09:53:58.681Z,21.31
2022-10-04T09:56:28.185Z,21.56
2022-10-04T09:59:02.057Z,21.58
2022-10-04T10:01:31.644Z,21.48
2022-10-04T10:04:04.224Z,21.50
2022-10-04T10:06:36.690Z,21.50
2022-10-04T10:09:09.775Z,21.91
2022-10-04T10:12:04.417Z,21.75
2022-10-04T10:14:49.418Z,22.07
2022-10-04T10:17:37.892Z,22.23
2022-10-04T10:20:04.859Z,22.66
2022-10-04T10:22:46.657Z,22.09
2022-10-04T10:25:22.098Z,22.33
2022-10-04T10:27:48.545Z,21.94
2022-10-04T10:30:20.900Z,20.88
2022-10-04T10:33:06.111Z,21.94
2022-10-04T10:35:48.734Z,21.56
2022-10-04T10:38:29.231Z,22.76
2022-10-04T10:40:59.916Z,22.68
2022-10-04T10:43:38.643Z,22.94
2022-10-04T10:46:42.638Z,23.47
2022-10-04T10:49:09.312Z,23.62
2022-10-04T10:51:55.820Z,23.09
2022-10-04T10:54:39.087Z,22.47
2022-10-04T10:57:24.830Z,22.33
2022-10-04T11:00:04.750Z,22.51
2022-10-04T11:02:48.345Z,22.79
2022-10-04T11:05:35.031Z,23.12
2022-10-04T11:08:20.152Z,23.19
2022-10-04T11:11:05.331Z,23.82
2022-10-04T11:13:50.615Z,24.32
2022-10-04T11:16:35.713Z,22.34
2022-10-04T11:19:11.288Z,23.02
2022-10-04T11:21:56.128Z,22.03
2022-10-04T11:24:44.928Z,23.87
2022-10-04T11:27:14.316Z,23.62
2022-10-04T11:29:47.121Z,22.11
2022-10-04T11:32:32.359Z,22.33
2022-10-04T11:35:08.045Z,23.01
2022-10-04T11:37:34.509Z,23.27
2022-10-04T11:40:08.689Z,23.66
2022-10-04T11:42:38.251Z,23.89
2022-10-04T11:45:19.805Z,24.13
2022-10-04T11:47:46.279Z,23.49
2022-10-04T11:50:32.166Z,23.43
2022-10-04T11:53:19.101Z,23.98
2022-10-04T11:55:57.219Z,23.92
2022-10-04T11:58:26.609Z,23.16
2022-10-04T12:01:00.859Z,22.98
2022-10-04T12:03:41.343Z,24.06
2022-10-04T12:06:07.754Z,23.82
2022-10-04T12:08:37.370Z,24.30
2022-10-04T12:11:13.412Z,23.05
2022-10-04T12:13:42.671Z,23.66
2022-10-04T12:16:29.813Z,23.69
2022-10-04T12:19:09.221Z,24.51
2022-10-04T12:21:54.831Z,24.00
2022-10-04T12:24:41.505Z,24.04
2022-10-04T12:27:34.119Z,24.43
2022-10-04T12:30:11.775Z,24.01
2022-10-04T12:32:57.753Z,24.92
2022-10-04T12:35:30.866Z,24.82
2022-10-04T12:38:01.331Z,24.24
2022-10-04T12:40:33.071Z,23.72
2022-10-04T12:43:10.029Z,24.33
2022-10-04T12:45:52.758Z,24.13
2022-10-04T12:48:34.529Z,23.70
2022-10-04T12:51:19.743Z,24.27
2022-10-04T12:54:05.285Z,23.56
2022-10-04T12:56:51.079Z,23.73
2022-10-04T12:59:22.693Z,23.92
2022-10-04T13:02:05.539Z,24.06
2022-10-04T13:04:39.245Z,24.33
2022-10-04T13:07:14.846Z,24.28
2022-10-04T13:10:11.998Z,24.40
2022-10-04T13:12:39.562Z,24.33
2022-10-04T13:15:09.128Z,23.55
2022-10-04T13:17:59.615Z,24.34
2022-10-04T13:20:44.784Z,24.30
2022-10-04T13:23:29.817Z,24.82
2022-10-04T13:26:07.904Z,23.75
2022-10-04T13:28:42.385Z,23.49
2022-10-04T13:31:48.814Z,23.63
2022-10-04T13:34:19.820Z,23.86
2022-10-04T13:37:12.336Z,24.46
2022-10-04T13:39:44.524Z,24.29
2022-10-04T13:42:12.642Z,24.52
2022-10-04T13:44:42.358Z,23.77
2022-10-04T13:47:27.785Z,23.29
2022-10-04T13:50:00.248Z,23.54
2022-10-04T13:53:02.231Z,23.50
2022-10-04T13:56:06.868Z,23.71
2022-10-04T13:58:48.549Z,24.32
2022-10-04T14:01:18.011Z,23.30
2022-10-04T14:03:44.784Z,23.00
2022-10-04T14:06:23.142Z,23.95
2022-10-04T14:08:55.598Z,23.33
2022-10-04T14:11:41.690Z,23.51
2022-10-04T14:14:17.345Z,22.57
2022-10-04T14:16:57.413Z,22.85
2022-10-04T14:20:00.782Z,23.38
2022-10-04T14:22:27.724Z,23.58
2022-10-04T14:24:57.042Z,23.74
2022-10-04T14:27:39.902Z,23.20
2022-10-04T14:30:23.103Z,23.06
2022-10-04T14:32:55.729Z,23.37
2022-10-04T14:35:26.036Z,23.69
2022-10-04T14:38:13.269Z,23.41
2022-10-04T14:40:58.610Z,23.01
2022-10-04T14:43:44.262Z,22.33
2022-10-04T14:46:14.257Z,22.90
2022-10-04T14:48:42.551Z,22.81
2022-10-04T14:51:19.370Z,22.79
2022-10-04T14:53:53.962Z,22.56
2022-10-04T14:56:27.490Z,22.32
2022-10-04T14:59:00.010Z,22.17
2022-10-04T15:01:27.801Z,22.48
2022-10-04T15:04:14.015Z,22.14
2022-10-04T15:06:48.549Z,21.58
2022-10-04T15:09:40.418Z,21.36
2022-10-04T15:12:40.597Z,21.47
2022-10-04T15:15:14.233Z,21.97
2022-10-04T15:17:43.332Z,21.45
2022-10-04T15:20:20.004Z,20.88
2022-10-04T15:22:50.734Z,20.75
2022-10-04T15:25:35.683Z,20.31
2022-10-04T15:28:04.835Z,20.32
2022-10-04T15:30:49.399Z,20.52
2022-10-04T15:33:32.776Z,20.40
2022-10-04T15:36:02.282Z,19.20
2022-10-04T15:38:34.866Z,19.15
2022-10-04T15:41:03.278Z,18.89
2022-10-04T15:43:31.874Z,18.54
2022-10-04T15:46:03.549Z,18.84
2022-10-04T15:48:48.853Z,18.40
2022-10-04T15:51:15.295Z,18.03
2022-10-04T15:53:54.978Z,17.74
2022-10-04T15:56:33.143Z,17.42
2022-10-04T15:59:20.302Z,17.20
2022-10-04T16:02:02.106Z,17.21
2022-10-04T16:04:37.577Z,16.73
2022-10-04T16:07:07.022Z,16.32
2022-10-04T16:09:45.171Z,16.33
2022-10-04T16:12:21.115Z,16.23
2022-10-04T16:14:59.610Z,16.02
2022-10-04T16:17:53.173Z,15.66
2022-10-04T16:20:27.932Z,15.89
2022-10-04T16:23:15.554Z,15.89
2022-10-04T16:25:42.362Z,15.39
2022-10-04T16:28:29.519Z,15.51
2022-10-04T16:31:19.911Z,15.19
2022-10-04T16:34:07.132Z,15.34
2022-10-04T16:36:43.145Z,15.27
2022-10-04T16:39:29.209Z,14.92
2022-10-04T16:41:59.782Z,14.99
2022-10-04T16:44:40.608Z,14.92
2022-10-04T16:47:19.010Z,14.71
2022-10-04T16:49:50.926Z,14.74
2022-10-04T16:52:37.600Z,14.64
2022-10-04T16:55:22.918Z,14.51
2022-10-04T16:58:21.523Z,14.40
2022-10-04T17:00:48.792Z,14.29
2022-10-04T17:03:25.481Z,14.24
2022-10-04T17:06:11.748Z,14.19
2022-10-04T17:08:47.836Z,13.97
2022-10-04T17:11:28.881Z,13.89
2022-10-04T17:14:22.273Z,14.07
2022-10-04T17:16:56.856Z,13.96
2022-10-04T17:19:42.465Z,13.74
2022-10-04T17:22:24.340Z,13.74
2022-10-04T17:25:09.626Z,13.86
2022-10-04T17:27:39.126Z,13.82
2022-10-04T17:30:19.430Z,13.60
2022-10-04T17:33:07.507Z,13.34
2022-10-04T17:35:52.719Z,13.16
2022-10-04T17:38:35.196Z,13.09
2022-10-04T17:41:17.328Z,13.06
2022-10-04T17:44:03.989Z,12.73
2022-10-04T17:46:30.493Z,12.35
2022-10-04T17:49:22.014Z,12.32
2022-10-04T17:52:12.637Z,12.33
2022-10-04T17:54:57.538Z,12.36
2022-10-04T17:57:27.385Z,12.51
2022-10-04T17:59:58.050Z,12.67
2022-10-04T18:02:43.338Z,12.58
2022-10-04T18:05:19.135Z,12.51
2022-10-04T18:07:52.571Z,12.61
2022-10-04T18:10:27.310Z,12.54
2022-10-04T18:13:00.043Z,12.50
2022-10-04T18:15:43.838Z,12.55
2022-10-04T18:18:10.313Z,12.50
2022-10-04T18:20:45.436Z,12.55
2022-10-04T18:23:17.278Z,12.36
2022-10-04T18:25:44.309Z,12.07
2022-10-04T18:28:10.727Z,12.23
2022-10-04T18:30:46.543Z,12.25
2022-10-04T18:33:16.855Z,12.89
2022-10-04T18:36:02.325Z,12.61
2022-10-04T18:38:29.177Z,12.33
2022-10-04T18:40:58.033Z,11.94
2022-10-04T18:43:29.776Z,12.12
2022-10-04T18:46:01.322Z,12.06
2022-10-04T18:48:50.907Z,11.79
2022-10-04T18:51:23.307Z,11.50
2022-10-04T18:53:57.171Z,11.77
2022-10-04T18:56:24.026Z,11.84
2022-10-04T18:59:38.471Z,11.88
2022-10-04T19:02:12.688Z,11.94
2022-10-04T19:04:39.206Z,11.88
2022-10-04T19:07:10.743Z,11.83
2022-10-04T19:09:55.995Z,11.91
2022-10-04T19:12:31.177Z,11.86
2022-10-04T19:15:16.322Z,11.56
2022-10-04T19:18:01.669Z,11.57
2022-10-04T19:20:38.396Z,11.48
2022-10-04T19:23:15.450Z,11.56
2022-10-04T19:26:17.685Z,11.64
2022-10-04T19:28:38.901Z,11.60
2022-10-04T19:31:21.667Z,11.59
2022-10-04T19:34:06.984Z,11.22
2022-10-04T19:36:33.900Z,11.42
2022-10-04T19:39:19.154Z,11.30
2022-10-04T19:41:49.198Z,11.26
2022-10-04T19:44:26.051Z,11.11
2022-10-04T19:46:56.074Z,11.14
2022-10-04T19:49:34.764Z,11.10
2022-10-04T19:52:14.276Z,11.10
2022-10-04T19:54:40.813Z,11.23
2022-10-04T19:57:12.578Z,10.99
2022-10-04T19:59:40.713Z,11.12
2022-10-04T20:02:08.534Z,10.99
2022-10-04T20:04:35.129Z,10.78
2022-10-04T20:07:03.153Z,10.80
2022-10-04T20:09:51.385Z,10.86
2022-10-04T20:12:47.255Z,10.88
2022-10-04T20:15:16.490Z,10.85
2022-10-04T20:17:46.123Z,10.66
2022-10-04T20:20:17.143Z,10.45
2022-10-04T20:22:49.367Z,10.39
2022-10-04T20:25:34.596Z,10.28
2022-10-04T20:28:02.171Z,10.36
2022-10-04T20:30:47.794Z,10.50
2022-10-04T20:33:34.191Z,10.47
2022-10-04T20:36:11.420Z,10.47
2022-10-04T20:38:47.018Z,10.16
2022-10-04T20:41:28.750Z,10.35
2022-10-04T20:43:56.850Z,10.31
2022-10-04T20:46:24.404Z,10.24
2022-10-04T20:48:52.492Z,10.22
2022-10-04T20:51:21.884Z,10.18
2022-10-04T20:53:52.130Z,10.25
2022-10-04T20:56:21.030Z,10.28
2022-10-04T20:58:51.798Z,10.16
2022-10-04T21:01:41.217Z,10.15
2022-10-04T21:04:34.005Z,10.27
2022-10-04T21:07:02.190Z,10.22
2022-10-04T21:09:29.841Z,10.15
2022-10-04T21:11:57.145Z,10.16
2022-10-04T21:14:33.983Z,10.14
2022-10-04T21:17:02.969Z,9.89
2022-10-04T21:19:32.696Z,9.91
2022-10-04T21:21:59.929Z,9.95
2022-10-04T21:24:46.683Z,9.96
2022-10-04T21:27:25.390Z,9.80
2022-10-04T21:29:53.642Z,9.59
2022-10-04T21:32:23.600Z,9.88
2022-10-04T21:34:54.608Z,9.90
2022-10-04T21:37:21.615Z,9.73
2022-10-04T21:39:48.030Z,9.84
2022-10-04T21:42:14.710Z,9.79
2022-10-04T21:44:41.266Z,9.77
2022-10-04T21:47:07.689Z,9.79
2022-10-04T21:49:34.323Z,9.81
2022-10-04T21:52:00.811Z,9.66
2022-10-04T21:54:27.223Z,9.78
2022-10-04T21:56:54.158Z,9.78
2022-10-04T21:59:20.897Z,9.79
2022-10-04T22:01:47.374Z,9.59
2022-10-04T22:04:13.922Z,9.61
2022-10-04T22:06:40.475Z,9.60
2022-10-04T22:09:07.241Z,9.57
2022-10-04T22:11:33.915Z,9.54
2022-10-04T22:14:00.333Z,9.36
2022-10-04T22:16:26.992Z,9.51
2022-10-04T22:18:53.504Z,9.36
2022-10-04T22:21:20.051Z,9.39
2022-10-04T22:23:46.587Z,9.25
2022-10-04T22:26:16.376Z,9.28
2022-10-04T22:28:53.218Z,9.47
2022-10-04T22:31:21.252Z,9.56
2022-10-04T22:33:49.571Z,9.47
2022-10-04T22:36:19.070Z,9.45
2022-10-04T22:38:48.976Z,9.57
2022-10-04T22:41:16.546Z,9.59
2022-10-04T22:43:42.989Z,9.43
2022-10-04T22:46:17.697Z,9.33
2022-10-04T22:48:45.833Z,9.45
2022-10-04T22:51:12.897Z,9.19
2022-10-04T22:53:46.609Z,9.09
2022-10-04T22:56:13.929Z,9.22
2022-10-04T22:58:41.175Z,9.28
2022-10-04T23:01:14.953Z,9.13
2022-10-04T23:03:44.547Z,9.13
2022-10-04T23:06:14.198Z,9.21
2022-10-04T23:08:43.925Z,9.11
2022-10-04T23:11:10.581Z,9.03
2022-10-04T23:13:37.704Z,9.02
2022-10-04T23:16:14.664Z,9.02
2022-10-04T23:18:41.416Z,9.10
2022-10-04T23:21:23.223Z,9.14
2022-10-04T23:23:50.329Z,8.98
2022-10-04T23:26:21.900Z,8.79
2022-10-04T23:28:48.384Z,8.94
2022-10-04T23:31:24.646Z,9.05
2022-10-04T23:33:51.957Z,9.04
2022-10-04T23:36:18.725Z,9.04
2022-10-04T23:38:49.629Z,9.03
2022-10-04T23:41:17.030Z,8.85
2022-10-04T23:43:43.510Z,8.83
2022-10-04T23:46:18.114Z,8.83
2022-10-04T23:48:45.106Z,9.02
2022-10-04T23:51:13.168Z,8.82
2022-10-04T23:53:39.952Z,8.90
2022-10-04T23:56:11.870Z,8.75
2022-10-04T23:58:39.827Z,8.79
